Create Tblcommutelog Verified Points Advance Search
| # | Trip ID | Id Commuter | Trip Date | Trip Num | Current Lat | Current Lng | Delta Distance | Current Time | Activity | Activity Confidence | Current Speed | |
|---|---|---|---|---|---|---|---|---|---|---|---|---|
| 72801 | 251008_771581_16500126_0821 | 771581 | (not set) | (not set) | 38.924767443437 | -77.03917270945 | 0.6721 | 2025-10-08 08:24:56 | on_bicycle | 100 | 3.3349128720484 | |
| 72802 | 251008_781975_16497756_0804 | 781975 | (not set) | (not set) | 38.831155634228 | -77.110168175582 | 16.5206 | 2025-10-08 08:25:02 | in_vehicle | 100 | 14.372312176455 | |
| 72803 | 251008_780933_16509153_0752 | 780933 | (not set) | (not set) | 39.085154232371 | -76.707526121098 | 16.9065 | 2025-10-08 08:25:07 | still | 33 | 5.427056604111 | |
| 72804 | 251008_786839_16514813_0804 | 786839 | (not set) | (not set) | 39.438541770485 | -76.374291490443 | 15.0319 | 2025-10-08 08:25:14 | in_vehicle | 100 | 14.233730006169 | |
| 72805 | 251008_782840_16428201_0816 | 782840 | (not set) | (not set) | 38.913141130943 | -77.039363480342 | 0 | 2025-10-08 08:25:17 | still | 100 | -0.44703925898772 | |
| 72806 | 251008_789454_16514391_0806 | 789454 | (not set) | (not set) | 39.1784710854 | -76.865083715562 | 12.7327 | 2025-10-08 08:25:22 | in_vehicle | 100 | 10.91222831189 | |
| 72807 | 251008_784278_16513851_0716 | 784278 | (not set) | (not set) | 39.026202596653 | -77.070574418597 | 42.4818 | 2025-10-08 08:25:30 | in_vehicle | 100 | 3.8311264495248 | |
| 72808 | 251008_788532_16514574_0825 | 788532 | (not set) | (not set) | 39.020220574469 | -76.907047552046 | 0 | 2025-10-08 08:25:35 | in_vehicle | 100 | 9.6247552460057 | |
| 72809 | 251008_758112_16514544_0814 | 758112 | (not set) | (not set) | 38.902871683895 | -77.039512379407 | 1.7682 | 2025-10-08 08:25:39 | on_foot | 100 | -0.44703925898772 | |
| 72810 | 251008_773187_16479639_0821 | 773187 | (not set) | (not set) | 38.917020189171 | -77.034827464195 | 0.1699 | 2025-10-08 08:25:43 | on_foot | 100 | 1.0773646141604 | |
| 72811 | 251008_112979_16515973_0715 | 112979 | (not set) | (not set) | 38.929375196277 | -77.168668966702 | 12.3754 | 2025-10-08 08:25:47 | unknown | 100 | 7.7427199656674 | |
| 72812 | 251008_782840_16428201_0816 | 782840 | (not set) | (not set) | 38.913141130943 | -77.039363480342 | 0 | 2025-10-08 08:25:53 | still | 33 | -0.44703925898772 | |
| 72813 | 251008_782840_16428201_0816 | 782840 | (not set) | (not set) | 38.913141130943 | -77.039363480342 | 0 | 2025-10-08 08:26:00 | still | 100 | -0.44703925898772 | |
| 72814 | 251008_788736_6461772_0731 | 788736 | (not set) | (not set) | 38.88779152974 | -77.115589699623 | 34.7501 | 2025-10-08 08:26:05 | unknown | 100 | 5.6997505520935 | |
| 72815 | 251008_780933_16509153_0752 | 780933 | (not set) | (not set) | 39.07716420044 | -76.715171372564 | 17.6015 | 2025-10-08 08:26:09 | in_vehicle | 100 | 10.299784527077 | |
| 72816 | 251008_776877_16494140_0814 | 776877 | (not set) | (not set) | 38.952520475039 | -77.359168611865 | 3.548 | 2025-10-08 08:26:14 | in_vehicle | 100 | 6.1780825592103 | |
| 72817 | 251008_780278_16513467_0826 | 780278 | (not set) | (not set) | 38.869626413913 | -77.053964236645 | 0 | 2025-10-08 08:26:19 | unknown | 100 | -0.44703925898772 | |
| 72818 | 251008_776877_16494140_0814 | 776877 | (not set) | (not set) | 38.952247661181 | -77.356834637924 | 3.6752 | 2025-10-08 08:26:26 | in_vehicle | 100 | 8.5652722022048 | |
| 72819 | 251008_771581_16500126_0821 | 771581 | (not set) | (not set) | 38.926693812097 | -77.031008521075 | 1.1494 | 2025-10-08 08:26:32 | on_bicycle | 100 | 4.1082907900972 | |
| 72820 | 251008_781975_16497756_0804 | 781975 | (not set) | (not set) | 38.84516898559 | -77.080663966673 | 18.4371 | 2025-10-08 08:26:38 | in_vehicle | 100 | 12.655681421942 |